sensor_id;sensor_type;location;lat;lon;timestamp;pressure;altitude;pressure_sealevel;temperature;humidity
71424;BME280;59240;51.370;-0.486;2023-05-03T00:01:18;102705.34;;;8.84;65.31
71424;BME280;59240;51.370;-0.486;2023-05-03T00:03:45;102711.47;;;8.87;64.88
71424;BME280;59240;51.370;-0.486;2023-05-03T00:06:13;102714.94;;;8.86;65.72
71424;BME280;59240;51.370;-0.486;2023-05-03T00:08:43;102720.94;;;8.84;64.66
71424;BME280;59240;51.370;-0.486;2023-05-03T00:11:09;102716.56;;;8.80;65.37
71424;BME280;59240;51.370;-0.486;2023-05-03T00:13:36;102719.06;;;8.75;65.52
71424;BME280;59240;51.370;-0.486;2023-05-03T00:16:03;102715.53;;;8.71;65.16
71424;BME280;59240;51.370;-0.486;2023-05-03T00:18:30;102728.63;;;8.77;65.77
71424;BME280;59240;51.370;-0.486;2023-05-03T00:20:57;102723.38;;;8.73;65.08
71424;BME280;59240;51.370;-0.486;2023-05-03T00:23:25;102735.53;;;8.75;65.42
71424;BME280;59240;51.370;-0.486;2023-05-03T00:25:55;102730.28;;;8.72;65.16
71424;BME280;59240;51.370;-0.486;2023-05-03T00:28:23;102717.97;;;8.61;65.65
71424;BME280;59240;51.370;-0.486;2023-05-03T00:30:50;102736.28;;;8.68;65.48
71424;BME280;59240;51.370;-0.486;2023-05-03T00:33:17;102699.53;;;8.47;65.99
71424;BME280;59240;51.370;-0.486;2023-05-03T00:35:44;102732.78;;;8.66;66.16
71424;BME280;59240;51.370;-0.486;2023-05-03T00:38:11;102721.31;;;8.54;65.99
71424;BME280;59240;51.370;-0.486;2023-05-03T00:40:39;102729.22;;;8.61;66.41
71424;BME280;59240;51.370;-0.486;2023-05-03T00:43:06;102709.03;;;8.45;66.16
71424;BME280;59240;51.370;-0.486;2023-05-03T00:45:33;102708.19;;;8.46;66.78
71424;BME280;59240;51.370;-0.486;2023-05-03T00:48:00;102722.13;;;8.51;65.87
71424;BME280;59240;51.370;-0.486;2023-05-03T00:50:28;102702.88;;;8.40;65.92
71424;BME280;59240;51.370;-0.486;2023-05-03T00:52:55;102715.97;;;8.44;66.76
71424;BME280;59240;51.370;-0.486;2023-05-03T00:55:22;102700.13;;;8.32;66.58
71424;BME280;59240;51.370;-0.486;2023-05-03T00:57:49;102700.91;;;8.30;66.18
71424;BME280;59240;51.370;-0.486;2023-05-03T01:00:15;102707.88;;;8.31;67.25
71424;BME280;59240;51.370;-0.486;2023-05-03T01:02:43;102707.81;;;8.28;66.81
71424;BME280;59240;51.370;-0.486;2023-05-03T01:05:10;102716.66;;;8.36;66.91
71424;BME280;59240;51.370;-0.486;2023-05-03T01:07:55;102720.97;;;8.37;66.59
71424;BME280;59240;51.370;-0.486;2023-05-03T01:10:50;102725.25;;;8.35;67.91
71424;BME280;59240;51.370;-0.486;2023-05-03T01:13:25;102728.66;;;8.31;67.45
71424;BME280;59240;51.370;-0.486;2023-05-03T01:18:47;102712.00;;;8.21;67.26
71424;BME280;59240;51.370;-0.486;2023-05-03T01:21:17;102717.19;;;8.19;67.52
71424;BME280;59240;51.370;-0.486;2023-05-03T01:24:07;102700.59;;;8.11;69.13
71424;BME280;59240;51.370;-0.486;2023-05-03T01:26:35;102697.94;;;8.08;67.00
71424;BME280;59240;51.370;-0.486;2023-05-03T01:29:01;102700.56;;;8.10;67.64
71424;BME280;59240;51.370;-0.486;2023-05-03T01:31:32;102704.91;;;8.11;67.95
71424;BME280;59240;51.370;-0.486;2023-05-03T01:34:27;102710.97;;;8.11;68.85
71424;BME280;59240;51.370;-0.486;2023-05-03T01:36:58;102705.72;;;8.08;67.87
71424;BME280;59240;51.370;-0.486;2023-05-03T01:39:34;102709.13;;;8.04;68.13
71424;BME280;59240;51.370;-0.486;2023-05-03T01:42:03;102697.72;;;7.96;68.11
71424;BME280;59240;51.370;-0.486;2023-05-03T01:44:31;102688.09;;;7.92;67.77
71424;BME280;59240;51.370;-0.486;2023-05-03T01:46:58;102694.22;;;7.95;67.71
71424;BME280;59240;51.370;-0.486;2023-05-03T01:49:26;102698.59;;;7.98;68.02
71424;BME280;59240;51.370;-0.486;2023-05-03T01:51:53;102694.13;;;7.89;68.08
71424;BME280;59240;51.370;-0.486;2023-05-03T01:54:20;102694.91;;;7.87;68.52
71424;BME280;59240;51.370;-0.486;2023-05-03T01:56:47;102679.94;;;7.74;68.29
71424;BME280;59240;51.370;-0.486;2023-05-03T01:59:13;102702.69;;;7.87;68.57
71424;BME280;59240;51.370;-0.486;2023-05-03T02:01:40;102688.72;;;7.80;68.44
71424;BME280;59240;51.370;-0.486;2023-05-03T02:04:07;102708.75;;;7.86;68.52
71424;BME280;59240;51.370;-0.486;2023-05-03T02:06:34;102707.81;;;7.82;68.49
71424;BME280;59240;51.370;-0.486;2023-05-03T02:09:02;102707.81;;;7.82;68.44
71424;BME280;59240;51.370;-0.486;2023-05-03T02:11:28;102706.88;;;7.79;68.82
71424;BME280;59240;51.370;-0.486;2023-05-03T02:13:55;102704.25;;;7.77;68.93
71424;BME280;59240;51.370;-0.486;2023-05-03T02:16:21;102684.06;;;7.62;68.91
71424;BME280;59240;51.370;-0.486;2023-05-03T02:18:48;102687.56;;;7.64;69.09
71424;BME280;59240;51.370;-0.486;2023-05-03T02:21:14;102690.91;;;7.60;68.85
71424;BME280;59240;51.370;-0.486;2023-05-03T02:23:41;102713.53;;;7.67;68.87
71424;BME280;59240;51.370;-0.486;2023-05-03T02:26:08;102707.31;;;7.59;68.90
71424;BME280;59240;51.370;-0.486;2023-05-03T02:28:34;102696.84;;;7.55;68.72
71424;BME280;59240;51.370;-0.486;2023-05-03T02:31:01;102713.34;;;7.58;69.65
71424;BME280;59240;51.370;-0.486;2023-05-03T02:33:31;102703.81;;;7.56;69.64
71424;BME280;59240;51.370;-0.486;2023-05-03T02:36:00;102704.53;;;7.50;69.66
71424;BME280;59240;51.370;-0.486;2023-05-03T02:38:27;102705.47;;;7.54;69.22
71424;BME280;59240;51.370;-0.486;2023-05-03T02:40:56;102706.34;;;7.54;69.81
71424;BME280;59240;51.370;-0.486;2023-05-03T02:43:23;102675.63;;;7.33;69.79
71424;BME280;59240;51.370;-0.486;2023-05-03T02:45:49;102687.09;;;7.43;69.78
71424;BME280;59240;51.370;-0.486;2023-05-03T02:48:16;102663.38;;;7.26;69.28
71424;BME280;59240;51.370;-0.486;2023-05-03T02:50:43;102677.34;;;7.31;69.62
71424;BME280;59240;51.370;-0.486;2023-05-03T02:53:10;102680.91;;;7.36;69.58
71424;BME280;59240;51.370;-0.486;2023-05-03T02:55:36;102682.66;;;7.37;69.58
71424;BME280;59240;51.370;-0.486;2023-05-03T02:58:03;102699.09;;;7.38;69.71
71424;BME280;59240;51.370;-0.486;2023-05-03T03:00:32;102685.09;;;7.30;69.77
71424;BME280;59240;51.370;-0.486;2023-05-03T03:02:59;102688.56;;;7.32;69.80
71424;BME280;59240;51.370;-0.486;2023-05-03T03:05:25;102685.06;;;7.28;69.80
71424;BME280;59240;51.370;-0.486;2023-05-03T03:07:53;102669.28;;;7.19;69.83
71424;BME280;59240;51.370;-0.486;2023-05-03T03:10:20;102682.41;;;7.27;70.39
71424;BME280;59240;51.370;-0.486;2023-05-03T03:12:46;102684.97;;;7.25;70.75
71424;BME280;59240;51.370;-0.486;2023-05-03T03:15:13;102679.72;;;7.21;70.02
71424;BME280;59240;51.370;-0.486;2023-05-03T03:17:42;102684.00;;;7.20;70.92
71424;BME280;59240;51.370;-0.486;2023-05-03T03:20:09;102668.28;;;7.12;70.75
71424;BME280;59240;51.370;-0.486;2023-05-03T03:22:38;102674.44;;;7.18;70.99
71424;BME280;59240;51.370;-0.486;2023-05-03T03:25:06;102654.28;;;7.06;70.98
71424;BME280;59240;51.370;-0.486;2023-05-03T03:27:32;102673.50;;;7.14;71.13
71424;BME280;59240;51.370;-0.486;2023-05-03T03:29:59;102664.72;;;7.07;70.67
71424;BME280;59240;51.370;-0.486;2023-05-03T03:32:26;102656.88;;;7.04;71.25
71424;BME280;59240;51.370;-0.486;2023-05-03T03:34:53;102664.75;;;7.09;71.09
71424;BME280;59240;51.370;-0.486;2023-05-03T03:37:22;102667.31;;;7.07;71.55
71424;BME280;59240;51.370;-0.486;2023-05-03T03:39:49;102668.09;;;7.05;70.94
71424;BME280;59240;51.370;-0.486;2023-05-03T03:42:16;102640.97;;;6.89;70.94
71424;BME280;59240;51.370;-0.486;2023-05-03T03:44:44;102654.16;;;7.00;71.17
71424;BME280;59240;51.370;-0.486;2023-05-03T03:47:11;102650.66;;;6.98;70.75
71424;BME280;59240;51.370;-0.486;2023-05-03T03:49:37;102653.19;;;6.95;71.71
71424;BME280;59240;51.370;-0.486;2023-05-03T03:52:04;102633.94;;;6.83;71.05
71424;BME280;59240;51.370;-0.486;2023-05-03T03:54:31;102635.69;;;6.86;71.75
71424;BME280;59240;51.370;-0.486;2023-05-03T03:56:59;102632.22;;;6.84;70.82
71424;BME280;59240;51.370;-0.486;2023-05-03T03:59:28;102646.16;;;6.89;70.94
71424;BME280;59240;51.370;-0.486;2023-05-03T04:01:55;102647.84;;;6.87;71.92
71424;BME280;59240;51.370;-0.486;2023-05-03T04:04:22;102642.53;;;6.81;71.98
71424;BME280;59240;51.370;-0.486;2023-05-03T04:06:49;102623.34;;;6.73;71.36
71424;BME280;59240;51.370;-0.486;2023-05-03T04:09:15;102640.78;;;6.80;72.20
71424;BME280;59240;51.370;-0.486;2023-05-03T04:11:43;102631.28;;;6.80;71.23
71424;BME280;59240;51.370;-0.486;2023-05-03T04:14:10;102625.13;;;6.77;71.75
71424;BME280;59240;51.370;-0.486;2023-05-03T04:16:37;102630.25;;;6.74;72.34
71424;BME280;59240;51.370;-0.486;2023-05-03T04:19:03;102637.19;;;6.75;71.51
71424;BME280;59240;51.370;-0.486;2023-05-03T04:21:30;102623.25;;;6.70;71.73
71424;BME280;59240;51.370;-0.486;2023-05-03T04:23:57;102628.44;;;6.70;72.31
71424;BME280;59240;51.370;-0.486;2023-05-03T04:26:25;102627.50;;;6.66;72.67
71424;BME280;59240;51.370;-0.486;2023-05-03T04:28:58;102631.88;;;6.69;71.42
71424;BME280;59240;51.370;-0.486;2023-05-03T04:31:25;102628.22;;;6.61;71.91
71424;BME280;59240;51.370;-0.486;2023-05-03T04:33:52;102621.28;;;6.60;71.83
71424;BME280;59240;51.370;-0.486;2023-05-03T04:36:19;102609.84;;;6.51;72.55
71424;BME280;59240;51.370;-0.486;2023-05-03T04:38:51;102615.16;;;6.56;72.43
71424;BME280;59240;51.370;-0.486;2023-05-03T04:41:17;102610.78;;;6.53;72.26
71424;BME280;59240;51.370;-0.486;2023-05-03T04:43:44;102616.84;;;6.54;72.43
71424;BME280;59240;51.370;-0.486;2023-05-03T04:46:11;102629.97;;;6.62;72.93
71424;BME280;59240;51.370;-0.486;2023-05-03T04:48:38;102622.91;;;6.56;72.48
71424;BME280;59240;51.370;-0.486;2023-05-03T04:51:07;102612.44;;;6.51;72.92
71424;BME280;59240;51.370;-0.486;2023-05-03T04:53:34;102625.59;;;6.59;72.86
71424;BME280;59240;51.370;-0.486;2023-05-03T04:56:00;102623.78;;;6.56;72.29
71424;BME280;59240;51.370;-0.486;2023-05-03T04:58:27;102631.69;;;6.61;71.94
71424;BME280;59240;51.370;-0.486;2023-05-03T05:00:53;102624.78;;;6.62;72.55
71424;BME280;59240;51.370;-0.486;2023-05-03T05:03:20;102626.47;;;6.60;72.49
71424;BME280;59240;51.370;-0.486;2023-05-03T05:05:47;102628.22;;;6.61;73.31
71424;BME280;59240;51.370;-0.486;2023-05-03T05:08:13;102623.88;;;6.60;73.10
71424;BME280;59240;51.370;-0.486;2023-05-03T05:10:40;102637.03;;;6.69;72.57
71424;BME280;59240;51.370;-0.486;2023-05-03T05:13:07;102643.09;;;6.69;72.98
71424;BME280;59240;51.370;-0.486;2023-05-03T05:15:34;102638.91;;;6.74;73.95
71424;BME280;59240;51.370;-0.486;2023-05-03T05:18:01;102632.72;;;6.68;73.48
71424;BME280;59240;51.370;-0.486;2023-05-03T05:20:27;102639.91;;;6.79;73.83
71424;BME280;59240;51.370;-0.486;2023-05-03T05:22:54;102632.78;;;6.72;73.30
71424;BME280;59240;51.370;-0.486;2023-05-03T05:25:21;102628.56;;;6.76;73.46
71424;BME280;59240;51.370;-0.486;2023-05-03T05:27:47;102661.84;;;6.95;73.63
71424;BME280;59240;51.370;-0.486;2023-05-03T05:30:14;102657.66;;;7.00;73.50
71424;BME280;59240;51.370;-0.486;2023-05-03T05:32:40;102652.53;;;7.03;74.08
71424;BME280;59240;51.370;-0.486;2023-05-03T05:35:07;102669.19;;;7.15;73.63
71424;BME280;59240;51.370;-0.486;2023-05-03T05:37:34;102670.16;;;7.20;74.34
71424;BME280;59240;51.370;-0.486;2023-05-03T05:40:01;102659.06;;;7.27;73.98
71424;BME280;59240;51.370;-0.486;2023-05-03T05:42:29;102673.16;;;7.38;74.39
71424;BME280;59240;51.370;-0.486;2023-05-03T05:44:56;102658.63;;;7.46;74.13
71424;BME280;59240;51.370;-0.486;2023-05-03T05:47:23;102661.53;;;7.61;74.37
71424;BME280;59240;51.370;-0.486;2023-05-03T05:49:49;102644.47;;;7.73;74.04
71424;BME280;59240;51.370;-0.486;2023-05-03T05:52:16;102644.97;;;7.97;74.14
71424;BME280;59240;51.370;-0.486;2023-05-03T05:54:43;102658.63;;;8.35;73.52
71424;BME280;59240;51.370;-0.486;2023-05-03T05:57:09;102671.31;;;8.68;73.09
71424;BME280;59240;51.370;-0.486;2023-05-03T05:59:38;102679.50;;;8.93;72.58
71424;BME280;59240;51.370;-0.486;2023-05-03T06:02:07;102662.41;;;9.07;72.74
71424;BME280;59240;51.370;-0.486;2023-05-03T06:04:38;102659.22;;;9.29;72.34
71424;BME280;59240;51.370;-0.486;2023-05-03T06:07:05;102664.50;;;9.36;71.49
71424;BME280;59240;51.370;-0.486;2023-05-03T06:09:32;102677.53;;;9.39;71.97
71424;BME280;59240;51.370;-0.486;2023-05-03T06:11:58;102667.03;;;9.31;72.37
71424;BME280;59240;51.370;-0.486;2023-05-03T06:14:25;102675.81;;;9.38;71.96
71424;BME280;59240;51.370;-0.486;2023-05-03T06:16:51;102674.09;;;9.40;72.04
71424;BME280;59240;51.370;-0.486;2023-05-03T06:19:19;102677.81;;;9.60;72.84
71424;BME280;59240;51.370;-0.486;2023-05-03T06:21:46;102657.16;;;9.74;72.65
71424;BME280;59240;51.370;-0.486;2023-05-03T06:24:12;102666.19;;;10.05;71.89
71424;BME280;59240;51.370;-0.486;2023-05-03T06:26:46;102663.84;;;10.26;71.87
71424;BME280;59240;51.370;-0.486;2023-05-03T06:29:13;102658.75;;;10.41;70.98
71424;BME280;59240;51.370;-0.486;2023-05-03T06:31:40;102654.53;;;10.54;71.30
71424;BME280;59240;51.370;-0.486;2023-05-03T06:34:08;102657.28;;;10.77;70.86
71424;BME280;59240;51.370;-0.486;2023-05-03T06:36:35;102659.13;;;10.90;70.09
71424;BME280;59240;51.370;-0.486;2023-05-03T06:39:03;102665.34;;;11.08;70.85
71424;BME280;59240;51.370;-0.486;2023-05-03T06:41:30;102654.13;;;11.24;70.33
71424;BME280;59240;51.370;-0.486;2023-05-03T06:43:58;102649.88;;;11.40;69.14
71424;BME280;59240;51.370;-0.486;2023-05-03T06:46:26;102657.75;;;11.57;69.67
71424;BME280;59240;51.370;-0.486;2023-05-03T06:48:53;102662.16;;;11.68;69.44
71424;BME280;59240;51.370;-0.486;2023-05-03T06:51:23;102640.44;;;11.74;69.01
71424;BME280;59240;51.370;-0.486;2023-05-03T06:53:59;102651.81;;;11.93;68.72
71424;BME280;59240;51.370;-0.486;2023-05-03T06:56:32;102633.53;;;11.91;68.96
71424;BME280;59240;51.370;-0.486;2023-05-03T06:58:59;102650.09;;;12.13;67.87
71424;BME280;59240;51.370;-0.486;2023-05-03T07:01:31;102652.75;;;12.24;67.31
71424;BME280;59240;51.370;-0.486;2023-05-03T07:04:04;102627.47;;;12.20;66.48
71424;BME280;59240;51.370;-0.486;2023-05-03T07:06:38;102636.22;;;12.36;66.93
71424;BME280;59240;51.370;-0.486;2023-05-03T07:09:21;102622.25;;;12.43;66.55
71424;BME280;59240;51.370;-0.486;2023-05-03T07:12:08;102618.75;;;12.53;66.77
71424;BME280;59240;51.370;-0.486;2023-05-03T07:14:34;102625.72;;;12.72;66.03
71424;BME280;59240;51.370;-0.486;2023-05-03T07:17:01;102615.28;;;12.71;66.36
71424;BME280;59240;51.370;-0.486;2023-05-03T07:19:28;102614.34;;;12.87;65.53
71424;BME280;59240;51.370;-0.486;2023-05-03T07:21:57;102602.13;;;12.95;65.36
71424;BME280;59240;51.370;-0.486;2023-05-03T07:24:24;102605.56;;;13.19;65.33
71424;BME280;59240;51.370;-0.486;2023-05-03T07:26:52;102595.09;;;13.25;63.94
71424;BME280;59240;51.370;-0.486;2023-05-03T07:29:19;102608.91;;;13.51;64.20
71424;BME280;59240;51.370;-0.486;2023-05-03T07:31:46;102619.34;;;13.66;63.60
71424;BME280;59240;51.370;-0.486;2023-05-03T07:34:13;102606.22;;;13.68;62.52
71424;BME280;59240;51.370;-0.486;2023-05-03T07:36:39;102593.97;;;13.70;63.04
71424;BME280;59240;51.370;-0.486;2023-05-03T07:39:14;102594.81;;;13.80;61.55
71424;BME280;59240;51.370;-0.486;2023-05-03T07:41:41;102594.66;;;13.98;62.13
71424;BME280;59240;51.370;-0.486;2023-05-03T07:44:07;102593.72;;;14.08;62.19
71424;BME280;59240;51.370;-0.486;2023-05-03T07:46:37;102604.06;;;14.25;58.18
71424;BME280;59240;51.370;-0.486;2023-05-03T07:49:05;102614.47;;;14.36;59.94
71424;BME280;59240;51.370;-0.486;2023-05-03T07:51:36;102610.03;;;14.41;59.33
71424;BME280;59240;51.370;-0.486;2023-05-03T07:54:03;102621.31;;;14.57;59.78
71424;BME280;59240;51.370;-0.486;2023-05-03T07:56:30;102623.72;;;14.78;60.61
71424;BME280;59240;51.370;-0.486;2023-05-03T07:58:56;102617.63;;;14.77;58.38
71424;BME280;59240;51.370;-0.486;2023-05-03T08:01:35;102606.19;;;14.82;58.79
71424;BME280;59240;51.370;-0.486;2023-05-03T08:04:02;102616.53;;;14.97;58.84
71424;BME280;59240;51.370;-0.486;2023-05-03T08:06:29;102601.66;;;14.97;57.98
71424;BME280;59240;51.370;-0.486;2023-05-03T08:08:57;102594.50;;;15.12;57.75
71424;BME280;59240;51.370;-0.486;2023-05-03T08:11:26;102592.69;;;15.17;57.30
71424;BME280;59240;51.370;-0.486;2023-05-03T08:13:52;102595.16;;;15.30;57.24
71424;BME280;59240;51.370;-0.486;2023-05-03T08:16:20;102587.13;;;15.40;56.70
71424;BME280;59240;51.370;-0.486;2023-05-03T08:18:46;102590.50;;;15.49;56.17
71424;BME280;59240;51.370;-0.486;2023-05-03T08:21:13;102605.19;;;15.67;55.73
71424;BME280;59240;51.370;-0.486;2023-05-03T08:23:40;102594.69;;;15.67;56.17
71424;BME280;59240;51.370;-0.486;2023-05-03T08:26:08;102606.66;;;15.86;55.80
71424;BME280;59240;51.370;-0.486;2023-05-03T08:28:35;102579.53;;;15.83;55.38
71424;BME280;59240;51.370;-0.486;2023-05-03T08:31:04;102579.44;;;15.89;55.36
71424;BME280;59240;51.370;-0.486;2023-05-03T08:33:33;102602.56;;;16.24;55.95
71424;BME280;59240;51.370;-0.486;2023-05-03T08:35:59;102593.63;;;16.33;55.52
71424;BME280;59240;51.370;-0.486;2023-05-03T08:38:27;102571.72;;;16.34;54.40
71424;BME280;59240;51.370;-0.486;2023-05-03T08:40:57;102603.69;;;16.59;53.60
71424;BME280;59240;51.370;-0.486;2023-05-03T08:43:28;102583.59;;;16.56;53.81
71424;BME280;59240;51.370;-0.486;2023-05-03T08:45:58;102586.16;;;16.61;53.84
71424;BME280;59240;51.370;-0.486;2023-05-03T08:48:25;102600.03;;;16.69;54.01
71424;BME280;59240;51.370;-0.486;2023-05-03T08:50:55;102600.03;;;16.69;53.62
71424;BME280;59240;51.370;-0.486;2023-05-03T08:53:23;102588.56;;;16.73;53.55
71424;BME280;59240;51.370;-0.486;2023-05-03T08:55:49;102567.50;;;16.75;53.51
71424;BME280;59240;51.370;-0.486;2023-05-03T08:58:16;102591.41;;;17.09;52.72
71424;BME280;59240;51.370;-0.486;2023-05-03T09:00:45;102594.66;;;17.20;52.66
71424;BME280;59240;51.370;-0.486;2023-05-03T09:03:15;102588.34;;;17.27;52.76
71424;BME280;59240;51.370;-0.486;2023-05-03T09:05:42;102574.03;;;17.40;52.53
71424;BME280;59240;51.370;-0.486;2023-05-03T09:08:11;102575.56;;;17.50;51.66
71424;BME280;59240;51.370;-0.486;2023-05-03T09:10:40;102556.44;;;17.41;51.08
71424;BME280;59240;51.370;-0.486;2023-05-03T09:13:09;102555.38;;;17.51;51.72
71424;BME280;59240;51.370;-0.486;2023-05-03T09:15:37;102562.66;;;17.77;51.14
71424;BME280;59240;51.370;-0.486;2023-05-03T09:18:14;102568.41;;;17.94;49.41
71424;BME280;59240;51.370;-0.486;2023-05-03T09:20:44;102546.38;;;17.97;50.48
71424;BME280;59240;51.370;-0.486;2023-05-03T09:25:52;102576.06;;;18.41;50.35
71424;BME280;59240;51.370;-0.486;2023-05-03T09:28:19;102557.63;;;18.39;49.31
71424;BME280;59240;51.370;-0.486;2023-05-03T09:30:47;102550.00;;;18.59;49.11
71424;BME280;59240;51.370;-0.486;2023-05-03T09:33:14;102555.00;;;18.72;48.74
71424;BME280;59240;51.370;-0.486;2023-05-03T09:36:03;102572.00;;;18.94;47.01
71424;BME280;59240;51.370;-0.486;2023-05-03T09:38:32;102565.47;;;19.06;47.62
71424;BME280;59240;51.370;-0.486;2023-05-03T09:40:59;102552.19;;;19.09;47.34
71424;BME280;59240;51.370;-0.486;2023-05-03T09:43:35;102529.34;;;19.08;47.62
71424;BME280;59240;51.370;-0.486;2023-05-03T09:46:13;102563.50;;;19.42;47.20
71424;BME280;59240;51.370;-0.486;2023-05-03T09:48:41;102566.63;;;19.56;45.81
71424;BME280;59240;51.370;-0.486;2023-05-03T09:51:09;102537.56;;;19.55;46.68
71424;BME280;59240;51.370;-0.486;2023-05-03T09:53:39;102566.50;;;19.87;45.38
71424;BME280;59240;51.370;-0.486;2023-05-03T09:56:08;102563.25;;;19.79;45.39
71424;BME280;59240;51.370;-0.486;2023-05-03T09:58:38;102543.34;;;19.67;45.30
71424;BME280;59240;51.370;-0.486;2023-05-03T10:01:07;102563.78;;;19.90;44.61
71424;BME280;59240;51.370;-0.486;2023-05-03T10:03:45;102547.75;;;19.95;42.53
71424;BME280;59240;51.370;-0.486;2023-05-03T10:06:24;102552.31;;;20.16;42.05
71424;BME280;59240;51.370;-0.486;2023-05-03T10:11:25;102528.19;;;20.52;43.09
71424;BME280;59240;51.370;-0.486;2023-05-03T10:13:59;102534.53;;;20.71;42.13
71424;BME280;59240;51.370;-0.486;2023-05-03T10:16:30;102550.50;;;20.93;41.03
71424;BME280;59240;51.370;-0.486;2023-05-03T10:19:13;102530.84;;;20.99;40.62
71424;BME280;59240;51.370;-0.486;2023-05-03T10:22:03;102542.59;;;21.15;40.52
71424;BME280;59240;51.370;-0.486;2023-05-03T10:24:37;102521.72;;;21.06;41.65
71424;BME280;59240;51.370;-0.486;2023-05-03T10:27:20;102505.03;;;21.04;41.80
71424;BME280;59240;51.370;-0.486;2023-05-03T10:29:47;102537.09;;;21.20;40.38
71424;BME280;59240;51.370;-0.486;2023-05-03T10:32:35;102503.88;;;21.11;39.62
71424;BME280;59240;51.370;-0.486;2023-05-03T10:35:11;102517.63;;;21.44;40.22
71424;BME280;59240;51.370;-0.486;2023-05-03T10:37:42;102524.03;;;21.39;37.86
71424;BME280;59240;51.370;-0.486;2023-05-03T10:40:14;102505.25;;;21.21;39.83
71424;BME280;59240;51.370;-0.486;2023-05-03T10:42:49;102495.25;;;21.29;38.62
71424;BME280;59240;51.370;-0.486;2023-05-03T10:45:27;102504.19;;;21.25;37.79
71424;BME280;59240;51.370;-0.486;2023-05-03T10:50:39;102514.34;;;21.60;39.74
71424;BME280;59240;51.370;-0.486;2023-05-03T10:53:07;102505.16;;;21.46;39.57
71424;BME280;59240;51.370;-0.486;2023-05-03T10:55:35;102486.25;;;21.10;39.10
71424;BME280;59240;51.370;-0.486;2023-05-03T10:58:02;102484.22;;;21.17;39.66
71424;BME280;59240;51.370;-0.486;2023-05-03T11:05:46;102478.81;;;21.85;37.81
71424;BME280;59240;51.370;-0.486;2023-05-03T11:08:16;102475.22;;;21.87;38.05
71424;BME280;59240;51.370;-0.486;2023-05-03T11:11:02;102472.44;;;21.69;36.80
71424;BME280;59240;51.370;-0.486;2023-05-03T11:13:38;102469.31;;;21.80;39.13
71424;BME280;59240;51.370;-0.486;2023-05-03T11:16:06;102480.66;;;21.83;39.03
71424;BME280;59240;51.370;-0.486;2023-05-03T11:18:35;102477.44;;;21.75;39.18
71424;BME280;59240;51.370;-0.486;2023-05-03T11:21:02;102441.88;;;21.59;38.53
71424;BME280;59240;51.370;-0.486;2023-05-03T11:23:29;102449.75;;;21.82;38.63
71424;BME280;59240;51.370;-0.486;2023-05-03T11:25:55;102467.19;;;22.10;38.81
71424;BME280;59240;51.370;-0.486;2023-05-03T11:28:25;102449.22;;;22.15;38.46
71424;BME280;59240;51.370;-0.486;2023-05-03T11:30:52;102445.66;;;22.16;38.51
71424;BME280;59240;51.370;-0.486;2023-05-03T11:33:18;102455.78;;;22.06;37.50
71424;BME280;59240;51.370;-0.486;2023-05-03T11:35:46;102448.69;;;21.87;37.87
71424;BME280;59240;51.370;-0.486;2023-05-03T11:38:12;102435.91;;;21.76;37.46
71424;BME280;59240;51.370;-0.486;2023-05-03T11:40:39;102432.31;;;21.77;37.38
71424;BME280;59240;51.370;-0.486;2023-05-03T11:43:09;102442.31;;;21.70;38.03
71424;BME280;59240;51.370;-0.486;2023-05-03T11:45:42;102418.25;;;21.33;36.84
71424;BME280;59240;51.370;-0.486;2023-05-03T11:48:11;102435.22;;;21.28;37.74
71424;BME280;59240;51.370;-0.486;2023-05-03T11:50:52;102428.25;;;21.24;37.00
71424;BME280;59240;51.370;-0.486;2023-05-03T11:53:24;102413.34;;;21.22;38.84
71424;BME280;59240;51.370;-0.486;2023-05-03T11:55:52;102438.44;;;21.57;38.16
71424;BME280;59240;51.370;-0.486;2023-05-03T11:58:24;102427.03;;;21.75;38.02
71424;BME280;59240;51.370;-0.486;2023-05-03T12:00:54;102402.91;;;21.81;38.67
71424;BME280;59240;51.370;-0.486;2023-05-03T12:03:24;102401.59;;;22.12;39.63
71424;BME280;59240;51.370;-0.486;2023-05-03T12:05:57;102417.69;;;22.28;38.42
71424;BME280;59240;51.370;-0.486;2023-05-03T12:08:30;102411.72;;;22.02;36.92
71424;BME280;59240;51.370;-0.486;2023-05-03T12:11:02;102402.44;;;21.92;38.01
71424;BME280;59240;51.370;-0.486;2023-05-03T12:13:34;102409.38;;;21.96;38.01
71424;BME280;59240;51.370;-0.486;2023-05-03T12:16:06;102400.38;;;21.58;37.90
71424;BME280;59240;51.370;-0.486;2023-05-03T12:18:48;102416.88;;;21.44;37.86
71424;BME280;59240;51.370;-0.486;2023-05-03T12:21:23;102410.25;;;21.54;38.43
71424;BME280;59240;51.370;-0.486;2023-05-03T12:23:52;102401.59;;;21.71;38.10
71424;BME280;59240;51.370;-0.486;2023-05-03T12:26:22;102380.44;;;21.70;37.80
71424;BME280;59240;51.370;-0.486;2023-05-03T12:28:54;102381.69;;;21.61;37.71
71424;BME280;59240;51.370;-0.486;2023-05-03T12:31:23;102378.22;;;21.39;38.09
71424;BME280;59240;51.370;-0.486;2023-05-03T12:33:50;102384.72;;;21.52;38.30
71424;BME280;59240;51.370;-0.486;2023-05-03T12:36:19;102364.25;;;21.55;37.62
71424;BME280;59240;51.370;-0.486;2023-05-03T12:38:51;102371.41;;;21.74;37.48
71424;BME280;59240;51.370;-0.486;2023-05-03T12:41:22;102348.88;;;21.64;37.31
71424;BME280;59240;51.370;-0.486;2023-05-03T12:43:54;102382.50;;;21.63;37.47
71424;BME280;59240;51.370;-0.486;2023-05-03T12:46:25;102372.06;;;21.38;38.57
71424;BME280;59240;51.370;-0.486;2023-05-03T12:49:00;102382.41;;;21.44;38.10
71424;BME280;59240;51.370;-0.486;2023-05-03T12:51:32;102356.56;;;21.29;37.57
71424;BME280;59240;51.370;-0.486;2023-05-03T12:54:02;102349.13;;;21.15;38.09
71424;BME280;59240;51.370;-0.486;2023-05-03T12:56:38;102346.81;;;21.29;38.83
71424;BME280;59240;51.370;-0.486;2023-05-03T12:59:07;102346.88;;;21.26;38.20
71424;BME280;59240;51.370;-0.486;2023-05-03T13:01:53;102357.75;;;21.20;37.87
71424;BME280;59240;51.370;-0.486;2023-05-03T13:04:23;102346.94;;;20.83;38.31
71424;BME280;59240;51.370;-0.486;2023-05-03T13:06:53;102344.44;;;20.78;38.86
71424;BME280;59240;51.370;-0.486;2023-05-03T13:09:26;102346.78;;;20.86;38.62
71424;BME280;59240;51.370;-0.486;2023-05-03T13:12:13;102339.28;;;20.97;38.41